Date,TemperatureHighF,TemperatureAvgF,TemperatureLowF,DewpointHighF,DewpointAvgF,DewpointLowF,HumidityHigh,HumidityAvg,HumidityLow,PressureMaxIn,PressureMinIn,WindSpeedMaxMPH,WindSpeedAvgMPH,GustSpeedMaxMPH,PrecipitationSumIn
2013-1-31,54.0,40.4,14.0,29.0,25.4,10.0,84,58,38,30.35,30.27,3,2,8,0.00
2013-2-1,26.0,26.0,26.0,18.0,18.0,18.0,72,72,72,30.31,30.31,2,2,4,0.00
2013-2-2,48.0,32.2,17.0,28.0,21.7,12.0,79,66,44,30.38,30.26,7,2,9,0.00
2013-2-3,54.0,31.6,12.0,29.0,18.8,8.0,84,63,31,30.25,30.15,11,3,14,0.00
2013-2-4,64.0,36.4,9.0,25.0,13.9,4.0,81,47,14,30.21,30.02,5,2,7,0.00
2013-2-5,63.0,41.7,17.0,19.0,11.6,5.0,65,35,11,30.04,29.84,14,4,21,0.00
2013-2-6,54.0,34.4,13.0,20.0,9.7,2.0,68,39,14,30.13,30.00,8,3,13,0.00
2013-2-7,56.0,38.6,22.0,16.0,5.9,-7.0,46,29,8,30.01,29.75,25,8,33,0.00
2013-2-8,37.0,33.1,27.0,21.0,15.3,10.0,58,48,36,29.86,29.78,15,10,24,0.00
2013-2-9,41.0,31.0,19.0,17.0,9.8,3.0,58,42,25,30.03,29.87,14,7,20,0.00
2013-2-10,43.0,32.2,19.0,19.0,10.4,4.0,56,41,22,30.09,29.99,15,7,22,0.00
2013-2-11,43.0,26.7,5.0,13.0,3.7,-3.0,70,40,18,30.24,30.10,6,3,11,0.00
2013-2-12,50.0,32.2,8.0,13.0,6.8,-4.0,62,37,20,30.34,30.25,7,2,10,0.00
2013-2-13,52.0,35.0,9.0,18.0,12.4,-3.0,59,41,24,30.38,30.25,9,3,14,0.00
2013-2-14,54.0,35.0,13.0,21.0,15.2,1.0,67,47,28,30.41,30.28,8,4,15,0.00
2013-2-15,59.0,34.3,10.0,23.0,13.7,3.0,73,47,20,30.47,30.30,4,2,8,0.00
2013-2-16,61.0,37.1,9.0,17.0,8.2,-1.0,63,35,12,30.34,30.01,5,2,9,0.00
2013-2-17,51.0,30.1,9.0,19.0,6.6,-4.0,56,39,21,30.03,29.96,14,5,21,0.00
2013-2-18,55.0,31.2,7.0,11.0,3.9,-8.0,53,34,17,30.04,29.70,8,2,12,0.00
2013-2-19,46.0,36.2,24.0,18.0,10.8,4.0,48,35,25,29.70,29.47,14,5,21,0.00
2013-2-20,45.0,35.9,25.0,17.0,9.8,-1.0,59,36,16,29.90,29.60,17,10,24,0.00
2013-2-21,45.0,32.9,14.0,9.0,3.7,-2.0,50,30,18,30.07,29.89,10,5,17,0.00
2013-2-22,51.0,36.5,14.0,15.0,7.9,-4.0,55,32,19,30.19,29.98,8,3,11,0.00
2013-2-23,48.0,35.1,16.0,29.0,12.3,4.0,76,40,26,30.20,29.83,26,11,37,0.00
2013-2-24,43.0,30.0,9.0,12.0,4.5,-1.0,68,37,17,30.31,30.20,5,2,10,0.00
2013-2-25,54.0,30.9,5.0,9.0,1.2,-10.0,56,32,14,30.22,30.05,19,7,28,0.00
2013-2-26,43.0,28.6,14.0,9.0,0.2,-7.0,48,30,16,30.28,30.13,8,3,14,0.00
2013-2-27,58.0,30.3,6.0,5.0,-4.0,-12.0,50,27,8,30.37,30.23,8,2,16,0.00
2013-5-10,-200.0,0.0,200.0,-99.9,-99.9,-99.9,67,67,67,30.20,30.20,1,1,2,0.00
2013-5-14,85.0,77.4,67.0,28.0,22.5,19.0,23,13,9,30.00,29.87,20,8,31,0.00
2013-5-15,85.0,75.5,65.0,29.0,14.4,7.0,24,11,6,29.95,29.86,18,10,29,0.00
2013-5-17,72.0,65.4,54.0,25.0,14.9,8.0,22,14,10,30.00,29.83,16,10,24,0.00
2013-5-18,75.0,59.3,40.0,31.0,21.6,16.0,43,25,11,30.08,29.96,16,7,22,0.00
2013-5-19,70.0,60.1,51.0,35.0,25.2,10.0,52,30,11,30.20,30.07,17,10,22,0.00
2013-6-5,92.0,81.0,69.0,18.0,14.5,10.0,13,8,6,30.07,29.93,10,5,17,0.00
2013-6-6,98.0,80.0,53.0,24.0,13.0,2.0,18,9,3,30.02,29.87,11,4,17,0.00
2013-6-7,98.0,81.9,59.0,25.0,18.2,10.0,25,11,4,30.01,29.86,11,5,18,0.00
2013-6-8,97.0,84.5,65.0,33.0,28.2,13.0,26,14,8,30.02,29.87,10,6,18,0.00
2013-6-9,102.0,80.2,60.0,35.0,21.3,14.0,22,12,5,29.95,29.73,24,5,34,0.00
2013-6-10,90.0,76.4,57.0,37.0,30.3,14.0,32,20,6,29.82,29.69,30,9,41,0.00
2013-6-11,93.0,71.3,52.0,39.0,31.6,18.0,55,29,7,29.94,29.84,16,5,27,0.00
2013-6-12,91.0,73.5,57.0,30.0,22.9,14.0,27,17,6,29.95,29.82,19,7,27,0.00
2013-6-13,82.0,68.0,58.0,24.0,10.1,-28.0,22,13,1,30.06,29.92,14,8,20,0.00
2013-6-14,78.0,64.5,50.0,23.0,18.2,10.0,34,18,9,30.16,29.91,15,7,22,0.00
2013-6-15,81.0,63.3,42.0,20.0,10.3,4.0,20,13,5,29.96,29.84,7,4,11,0.00
2013-6-16,88.0,74.7,57.0,21.0,15.3,4.0,20,11,4,30.05,29.92,12,7,21,0.00
2013-6-17,88.0,75.8,57.0,21.0,18.6,13.0,23,13,6,30.09,29.88,20,7,26,0.00
2013-6-18,88.0,68.0,46.0,24.0,17.5,12.0,30,16,6,29.94,29.80,30,11,41,0.00
2013-6-19,73.0,63.2,50.0,21.0,14.3,11.0,27,16,9,29.96,29.84,12,8,24,0.00
2013-6-20,67.0,55.9,47.0,23.0,20.7,16.0,34,26,14,30.02,29.96,11,6,16,0.00
2013-6-22,79.0,66.5,56.0,24.0,21.5,14.0,24,19,9,30.06,30.04,8,6,12,0.00
2013-6-23,84.0,76.5,69.0,33.0,26.9,22.0,23,17,10,0.00,40.00,21,10,27,0.00
2013-6-24,72.0,63.3,50.0,51.0,35.8,25.0,80,39,20,29.89,29.77,15,4,20,0.00
2013-6-25,54.0,53.7,53.0,50.0,49.3,49.0,86,85,84,29.89,29.88,3,2,4,0.00
2013-6-26,94.0,73.9,51.0,39.0,34.5,29.0,57,29,10,30.07,29.96,13,6,20,0.00
2013-6-27,97.0,72.5,59.0,34.0,31.4,28.0,32,24,9,30.18,30.05,11,4,15,0.00
2013-6-28,96.0,83.2,71.0,30.0,28.2,25.0,21,14,8,30.14,30.01,20,6,28,0.00
2013-6-29,102.0,87.0,69.0,38.0,34.5,29.0,30,18,9,30.05,30.01,10,5,19,0.00
2013-6-30,92.0,92.0,92.0,32.0,31.0,30.0,12,12,11,0.00,40.00,7,6,14,0.00
2013-7-1,90.0,83.4,80.0,39.0,36.3,34.0,22,19,14,30.06,30.06,10,5,17,0.00
2013-7-2,104.0,92.2,75.0,41.0,35.1,31.0,25,15,8,30.10,30.01,14,6,22,0.00
2013-7-3,97.0,84.1,69.0,48.0,43.5,34.0,44,26,13,30.14,30.07,14,6,20,0.00
2013-7-4,91.0,81.1,65.0,54.0,46.0,43.0,69,31,19,29.99,29.98,19,8,27,0.00
2013-7-5,96.0,73.6,56.0,54.0,47.7,37.0,75,48,13,0.00,40.00,5,2,9,0.00
2013-7-6,89.0,85.5,82.0,27.0,25.5,25.0,13,11,10,29.81,29.74,11,10,17,0.00
2013-7-7,96.0,91.3,82.0,26.0,23.3,22.0,13,9,7,0.00,40.00,11,10,17,0.00
2013-7-9,97.0,84.0,71.0,29.0,23.9,19.0,18,12,6,30.12,30.03,11,7,15,0.00
2013-7-10,97.0,90.7,75.0,30.0,24.9,19.0,15,10,7,30.08,29.98,14,10,23,0.00
2013-7-11,90.0,80.2,72.0,52.0,40.6,30.0,47,27,13,29.99,29.98,10,4,15,0.00
2013-7-12,93.0,72.3,59.0,45.0,40.5,28.0,54,35,10,0.00,40.00,12,5,17,0.00
2013-7-13,94.0,94.0,94.0,17.0,17.0,17.0,6,6,6,0.00,40.00,4,4,10,0.00
2013-7-14,95.0,89.7,83.0,27.0,19.0,17.0,13,8,6,0.00,40.00,10,7,24,0.00
2013-7-15,95.0,80.7,70.0,34.0,27.4,25.0,20,15,8,29.95,29.94,10,4,14,0.00
2013-7-16,97.0,83.4,71.0,34.0,28.5,18.0,25,14,7,29.96,29.85,13,5,22,0.00
2013-7-17,71.0,67.0,65.0,19.0,19.0,19.0,17,16,14,30.07,30.04,5,4,9,0.00
2013-7-18,92.0,90.0,86.0,15.0,13.0,12.0,7,6,5,30.07,30.07,3,3,8,0.00
2013-7-19,101.0,100.5,99.0,18.0,17.5,16.0,5,5,5,0.00,40.00,9,6,13,0.00
2013-7-20,103.0,90.1,67.0,25.0,22.5,19.0,20,10,5,29.93,29.88,6,3,11,0.00
2013-7-21,90.0,88.0,84.0,33.0,31.0,30.0,16,13,12,29.88,29.87,9,7,13,0.00
2013-7-22,102.0,85.3,67.0,39.0,33.0,22.0,29,17,6,29.97,29.88,19,6,26,0.00
2013-7-23,89.0,79.5,71.0,58.0,43.9,36.0,56,30,16,30.07,29.97,14,6,22,0.00
2013-7-24,95.0,77.6,65.0,53.0,46.6,34.0,60,39,12,30.06,30.04,12,5,20,0.00
2013-7-25,97.0,90.0,83.0,41.0,37.5,34.0,23,17,11,30.10,30.10,12,10,21,0.00
2013-7-26,97.0,73.6,62.0,59.0,47.9,35.0,66,44,12,30.16,30.01,7,4,15,0.00
2013-7-27,94.0,78.7,59.0,56.0,45.0,34.0,79,39,12,30.12,30.08,13,4,21,0.00
2013-7-28,93.0,76.4,63.0,45.0,40.6,33.0,48,30,12,29.92,29.86,10,4,22,0.00
2013-7-29,94.0,78.1,64.0,43.0,35.0,27.0,44,24,9,30.03,29.91,11,7,16,0.00
2013-7-30,86.0,77.0,67.0,28.0,26.6,25.0,23,16,11,30.07,30.02,10,6,15,0.00
2013-7-31,93.0,80.2,74.0,26.0,25.1,23.0,16,13,9,30.10,29.95,13,6,19,0.00
2013-8-1,86.0,73.8,59.0,27.0,17.5,7.0,29,14,5,30.01,29.92,15,7,24,0.00
2013-8-2,86.0,72.2,54.0,19.0,14.7,13.0,19,12,7,30.01,29.91,8,4,14,0.00
2013-8-3,89.0,77.5,59.0,21.0,19.2,17.0,20,12,7,30.01,30.01,4,4,8,0.00
2013-8-4,88.0,74.6,68.0,27.0,25.1,22.0,22,17,9,29.98,29.98,8,5,12,0.00
2013-8-5,81.0,77.7,72.0,23.0,22.7,22.0,16,13,11,30.00,29.96,7,5,12,0.00
2013-11-4,47.0,39.9,23.0,16.0,12.8,10.0,62,35,22,30.15,30.02,12,6,17,0.00
2013-11-5,50.0,38.3,28.0,18.0,14.0,12.0,54,38,22,30.29,30.21,4,2,9,0.00
2013-11-6,61.0,49.6,33.0,22.0,17.9,13.0,59,32,15,30.37,30.25,6,3,9,0.00
2013-11-7,66.0,47.4,32.0,26.0,19.8,17.0,64,37,16,30.22,30.21,8,4,12,0.00
2013-11-8,67.0,44.7,24.0,20.0,16.4,14.0,65,37,13,30.10,30.10,4,2,6,0.00
2013-11-9,65.0,49.4,31.0,23.0,20.8,18.0,62,36,16,30.12,30.12,8,3,11,0.00
2013-11-15,48.0,40.6,29.0,29.0,23.3,16.0,74,52,32,29.89,29.72,13,5,23,0.00
2013-11-16,58.0,43.9,29.0,23.0,20.3,16.0,65,42,21,29.84,29.65,6,4,9,0.00
2013-11-17,65.0,45.1,23.0,22.0,19.4,14.0,71,41,17,30.02,29.87,8,3,11,0.00
2013-11-18,59.0,47.5,26.0,24.0,22.1,15.0,62,38,25,30.05,29.95,6,3,9,0.00
2013-11-19,58.0,46.5,38.0,36.0,25.3,21.0,66,44,29,29.98,29.93,3,2,5,0.00
2013-11-20,54.0,50.1,43.0,40.0,38.0,36.0,77,64,55,0.00,40.00,6,2,8,0.00
2013-11-21,28.0,26.8,26.0,21.0,19.8,18.0,81,74,66,30.25,30.15,10,5,13,0.00
2013-11-22,37.0,29.6,23.0,20.0,16.0,13.0,78,58,41,30.33,30.20,7,2,10,0.00
2013-11-23,47.0,34.4,22.0,27.0,20.1,14.0,84,60,28,30.20,30.11,6,2,9,0.00
2013-11-24,46.0,31.8,20.0,24.0,20.6,17.0,86,67,33,30.31,30.14,7,2,10,0.00
2013-11-25,50.0,34.0,19.0,27.0,22.8,16.0,86,66,32,30.40,30.32,4,2,7,0.00
2013-11-30,52.0,38.1,22.0,31.0,20.5,-99.9,87,58,39,30.32,30.23,5,2,8,0.00
2013-12-1,57.0,42.7,32.0,30.0,25.3,23.0,74,53,27,30.39,30.27,6,2,8,0.00
2013-12-2,66.0,45.9,30.0,26.0,21.1,11.0,71,44,13,30.25,29.77,14,5,20,0.00
2013-12-3,51.0,32.0,17.0,31.0,22.4,11.0,88,70,38,29.82,29.71,24,9,31,0.00
2013-12-4,27.0,19.2,14.0,17.0,11.2,7.0,82,71,54,30.02,29.84,9,2,12,0.00
2013-12-5,29.0,20.3,14.0,13.0,9.4,6.0,77,64,39,30.05,29.98,6,3,9,0.00
2013-12-6,30.0,22.3,10.0,16.0,9.8,2.0,72,59,42,30.03,29.70,15,6,19,0.00
2013-12-7,31.0,24.4,16.0,23.0,12.9,7.0,80,62,43,30.08,29.63,16,8,23,0.00
2013-12-8,21.0,9.4,-1.0,9.0,1.3,-6.0,78,69,58,30.37,30.09,6,2,9,0.00
2013-12-9,22.0,6.0,-7.0,9.0,-1.5,-12.0,78,72,57,30.53,30.37,7,2,10,0.00
2013-12-10,23.0,10.2,-6.0,10.0,2.2,-11.0,80,70,55,30.47,30.31,6,2,9,0.00
2013-12-11,28.0,11.5,0.0,11.0,3.1,-5.0,80,70,46,30.44,30.35,5,2,8,0.00
2013-12-12,28.0,12.3,-1.0,13.0,4.0,-7.0,79,70,51,30.38,30.21,5,2,8,0.00
2013-12-13,31.0,17.8,2.0,17.0,9.2,-3.0,81,70,54,30.48,30.23,7,2,9,0.00
2013-12-14,35.0,18.5,3.0,19.0,10.4,-2.0,82,72,52,30.59,30.48,4,1,7,0.00
2013-12-15,38.0,22.4,7.0,21.0,13.7,3.0,83,70,49,30.54,30.41,4,2,5,0.00
2013-12-16,39.0,23.0,6.0,22.0,14.4,2.0,83,71,50,30.52,30.40,5,2,7,0.00
2013-12-17,32.0,28.7,20.0,21.0,19.4,14.0,76,68,63,30.39,30.26,2,1,3,0.00
2013-12-18,35.0,27.7,17.0,24.0,21.2,13.0,84,77,62,30.18,29.66,4,2,7,0.00
2013-12-19,35.0,29.1,15.0,27.0,19.0,9.0,83,66,48,30.02,29.66,19,8,27,0.00
2013-12-20,31.0,23.9,9.0,18.0,14.9,4.0,79,69,58,30.03,29.95,7,4,10,0.00
2013-12-21,46.0,30.3,21.0,29.0,20.5,16.0,82,67,50,30.12,29.93,8,3,13,0.00
2013-12-22,52.0,37.8,24.0,30.0,25.6,20.0,85,64,37,30.39,30.27,3,1,5,0.00
2013-12-23,54.0,34.6,20.0,31.0,25.6,17.0,88,72,40,30.45,30.36,5,2,8,0.00
2013-12-24,48.0,35.0,23.0,32.0,26.2,20.0,87,71,51,30.49,30.39,8,2,11,0.00
2013-12-25,45.0,31.3,17.0,30.0,23.8,15.0,89,75,54,30.53,30.40,8,2,11,0.00
2013-12-26,47.0,32.3,20.0,31.0,24.8,17.0,88,74,54,30.48,30.37,3,2,5,0.00
2013-12-27,38.0,30.1,20.0,29.0,24.2,17.0,90,80,68,30.38,30.20,8,3,10,0.00
2013-12-28,33.0,26.6,22.0,21.0,19.0,18.0,83,74,61,30.30,30.25,4,2,6,0.00
2013-12-29,39.0,31.9,23.0,24.0,22.2,19.0,85,68,54,30.37,30.28,5,3,7,0.00
2013-12-30,42.0,31.3,22.0,25.0,21.7,17.0,84,69,48,30.35,30.23,3,2,5,0.00
2013-12-31,52.0,39.0,19.0,24.0,22.4,16.0,87,54,31,30.31,30.20,4,2,5,0.00
2014-1-1,50.0,42.0,25.0,26.0,23.0,20.0,82,49,34,30.31,30.24,8,4,11,0.00
2014-1-2,51.0,38.8,25.0,26.0,24.0,20.0,84,57,34,30.30,30.17,5,2,9,0.00